METAR Data
IDs: Format: Raw Decoded Include TAF

Data at: 1743 UTC 16 Oct 2021

LICJ 161720Z 19010KT 9999 -RA BKN030 19/14 Q1016